Flight Track Log - Related Links

Times and Time Zones

All times are in EDT time to prevent confusion due to time zone crossing. See the UAL109 flight status page for this flight to view local times or setup timezone preferences in your user account.

Time Position Orientation Groundspeed Altitude Reporting Facility
EDT Latitude Longitude Course Direction KTS MPH feet Rate Location/Type
Fri 07:01:52 AM 55.9470 -3.3690 331° Northwest 6 7  Level FlightAware ADS-B
Fri 07:02:17 AM 55.9470 -3.3670 90° East 9 10 374 Level FlightAware ADS-B
Fri 07:02:47 AM 55.9480 -3.3650 48° Northeast 11 13 407 Level FlightAware ADS-B
Fri 07:03:17 AM 55.9490 -3.3620 59° Northeast 12 14 456 Level FlightAware ADS-B
Fri 07:03:27 AM 55.9490 -3.3610 90° East 13 15 518 Level FlightAware ADS-B
Fri 07:05:47 AM 55.9520 -3.3550 48° Northeast 5 6 543 Level FlightAware ADS-B
Fri 07:06:07 AM 55.9500 -3.3640 248° West 105 121 1,629 Level FlightAware ADS-B
Fri 07:06:32 AM 55.9400 -3.3900 236° Southwest 181 208 2,280 Level FlightAware ADS-B
Fri 07:06:57 AM 55.9310 -3.4180 240° Southwest 148 170 1,900 3,000 Climbing FlightAware ADS-B
Fri 07:07:22 AM 55.9210 -3.4460 237° Southwest 166 191 2,500 1,636 Climbing FlightAware ADS-B
Fri 07:07:52 AM 55.9090 -3.4810 239° Southwest 186 214 3,400 1,745 Climbing FlightAware ADS-B
Fri 07:08:17 AM 55.8990 -3.5190 245° Southwest 206 237 4,100 1,733 Climbing FlightAware ADS-B
Fri 07:08:37 AM 55.8960 -3.5540 261° West 225 259 4,700 1,920 Climbing FlightAware ADS-B
Fri 07:09:07 AM 55.8900 -3.6100 259° West 250 288 5,700 2,618 Climbing FlightAware ADS-B
Fri 07:09:32 AM 55.8850 -3.6620 260° West 245 282 7,100 3,450 Climbing FlightAware ADS-B
Fri 07:09:47 AM 55.8830 -3.6920 263° West 241 277 8,000 2,667 Climbing FlightAware ADS-B
Fri 07:10:17 AM 55.8770 -3.7520 260° West 256 295 9,100 2,308 Climbing FlightAware ADS-B
Fri 07:10:52 AM 55.8690 -3.8280 260° West 268 308 10,500 1,966 Climbing FlightAware ADS-B
Fri 07:11:15 AM 55.8677 -3.8828 260° West 326 375 11,000 1,200 Climbing FlightAware UK
Fri 07:11:42 AM 55.8570 -3.9430 260° West 317 365 11,500 1,273 Climbing FlightAware ADS-B
Fri 07:12:21 AM 55.8537 -4.0574 260° West 384 442 12,400 1,500 Climbing FlightAware UK
Fri 07:12:26 AM 55.8500 -4.0660 260° West 348 400 12,600 2,348 Climbing FlightAware ADS-B
Fri 07:13:07 AM 55.8550 -4.1870 260° West 359 413 14,200 2,372 Climbing FlightAware ADS-B
Fri 07:13:09 AM 55.8595 -4.1958 260° West 394 453 14,300 2,250 Climbing FlightAware UK
Fri 07:13:39 AM 55.8639 -4.2846 260° West 402 463 15,400 2,286 Climbing FlightAware UK
Fri 07:13:51 AM 55.8610 -4.3210 260° West 370 426 15,900 2,125 Climbing FlightAware ADS-B
Fri 07:14:27 AM 55.8660 -4.4250 275° West 377 434 17,100 2,053 Climbing FlightAware ADS-B
Fri 07:15:07 AM 55.8710 -4.5520 274° West 383 441 18,500 2,000 Climbing FlightAware ADS-B
Fri 07:15:39 AM 55.8811 -4.6580 274° West 428 493 19,500 1,902 Climbing FlightAware UK
Fri 07:15:48 AM 55.8770 -4.6830 274° West 393 452 19,800 1,837 Climbing FlightAware ADS-B
Fri 07:16:28 AM 55.8830 -4.8130 275° West 401 461 21,000 1,747 Climbing FlightAware ADS-B
Fri 07:17:07 AM 55.8880 -4.9450 274° West 409 471 22,100 1,650 Climbing FlightAware ADS-B
Fri 07:17:48 AM 55.8930 -5.0790 274° West 416 479 23,200 1,725 Climbing FlightAware ADS-B
Fri 07:18:27 AM 55.8990 -5.2170 274° West 419 482 24,400 1,600 Climbing FlightAware ADS-B
Fri 07:19:03 AM 55.9093 -5.3442 274° West 464 534 25,200 1,435 Climbing FlightAware UK
Fri 07:19:13 AM 55.9050 -5.3780 274° West 428 493 25,500 1,347 Climbing FlightAware ADS-B
Fri 07:19:52 AM 55.9100 -5.5150 274° West 437 503 26,300 1,200 Climbing FlightAware ADS-B
Fri 07:20:38 AM 55.9160 -5.6790 274° West 445 512 27,200 1,149 Climbing FlightAware ADS-B
Fri 07:20:39 AM 55.9222 -5.6881 274° West 480 552 27,200 1,161 Level FlightAware UK
Fri 07:21:09 AM 55.9261 -5.7980 274° West 484 557 27,800 1,231 Climbing FlightAware UK
Fri 07:21:18 AM 55.9210 -5.8250 274° West 449 517 28,000 1,674 Climbing FlightAware ADS-B
Fri 07:21:52 AM 55.9250 -5.9430 274° West 443 510 29,000 1,726 Climbing FlightAware ADS-B
Fri 07:22:31 AM 55.9290 -6.0930 273° West 439 505 30,100 1,618 Climbing FlightAware ADS-B
Fri 07:23:21 AM 55.9448 -6.2744 273° West 470 541 31,400 1,500 Climbing FlightAware UK
Fri 07:23:27 AM 55.9390 -6.2900 273° West 436 502 31,500 1,304 Climbing FlightAware ADS-B
Fri 07:24:07 AM 55.9580 -6.4220 284° West 435 501 32,400 1,229 Climbing FlightAware ADS-B
Fri 07:24:50 AM 55.9800 -6.5660 284° West 434 499 33,200 1,091 Climbing FlightAware ADS-B
Fri 07:24:51 AM 55.9903 -6.5855 284° West 466 536 33,200 774 Level FlightAware UK
Fri 07:25:21 AM 56.0064 -6.6888 284° West 462 532 33,600 833 Climbing FlightAware UK
Fri 07:25:27 AM 56.0020 -6.7070 284° West 439 505 33,700 824 Climbing FlightAware ADS-B
Fri 07:26:12 AM 56.0260 -6.8650 285° West 443 510 34,300 929 Climbing FlightAware ADS-B
Fri 07:26:51 AM 56.0556 -7.0044 285° West 464 534 35,000 1,171 Climbing FlightAware UK
Fri 07:26:53 AM 56.0480 -7.0050 285° West 440 506 35,100 1,174 Climbing FlightAware ADS-B
Fri 07:27:37 AM 56.0720 -7.1610 285° West 435 501 35,900 628 Climbing FlightAware ADS-B
Fri 07:28:19 AM 56.0930 -7.3010 285° West 434 499 36,000 136 Climbing FlightAware ADS-B
Fri 07:28:21 AM 56.1031 -7.3161 285° West 460 529 36,000  Level FlightAware UK
Fri 07:28:51 AM 56.1187 -7.4195 285° West 460 529 36,000  Level FlightAware UK
Fri 07:28:52 AM 56.1110 -7.4210 285° West 433 498 36,000  Level FlightAware ADS-B
Fri 07:29:26 AM 56.1373 -7.5430 285° West 460 529 36,000  Level FlightAware UK
Fri 07:29:37 AM 56.1340 -7.5760 285° West 433 498 36,000  Level FlightAware ADS-B
Fri 07:30:22 AM 56.1570 -7.7330 285° West 431 496 36,000  Level FlightAware ADS-B
Fri 07:30:26 AM 56.1678 -7.7502 285° West 458 527 36,000  Level FlightAware UK
Fri 07:30:56 AM 56.1830 -7.8538 285° West 458 527 36,000  Level FlightAware UK
Fri 07:31:07 AM 56.1790 -7.8870 285° West 431 496 36,000  Level FlightAware ADS-B
Fri 07:31:48 AM 56.2000 -8.0300 285° West 430 495 36,000  Level FlightAware ADS-B
Fri 07:32:26 AM 56.2281 -8.1646 285° West 458 527 36,000  Level FlightAware UK
Fri 07:32:32 AM 56.2220 -8.1830 285° West 430 495 36,000  Level FlightAware ADS-B
Fri 07:33:13 AM 56.2420 -8.3240 284° West 430 495 36,000  Level FlightAware ADS-B
Fri 07:33:53 AM 56.2610 -8.4620 284° West 430 495 36,000  Level FlightAware ADS-B
Fri 07:33:56 AM 56.2722 -8.4759 284° West 458 527 36,000  Level FlightAware UK
Fri 07:34:26 AM 56.2867 -8.5797 284° West 458 527 36,000  Level FlightAware UK
Fri 07:34:37 AM 56.2830 -8.6150 284° West 431 496 36,000  Level FlightAware ADS-B
Fri 07:35:18 AM 56.3030 -8.7580 284° West 431 496 36,000  Level FlightAware ADS-B
Fri 07:35:53 AM 56.3190 -8.8770 284° West 431 496 36,000  Level FlightAware ADS-B
Fri 07:36:37 AM 56.3410 -9.0370 284° West 433 498 36,000  Level FlightAware ADS-B
Fri 07:37:12 AM 56.3560 -9.1480 284° West 433 498 36,000  Level FlightAware ADS-B
Fri 07:37:53 AM 56.3760 -9.3010 283° West 432 497 36,000  Level FlightAware ADS-B
Fri 07:38:33 AM 56.3950 -9.4400 284° West 432 497 36,000  Level FlightAware ADS-B
Fri 07:39:15 AM 56.4150 -9.5920 283° West 433 498 36,000  Level FlightAware ADS-B
Fri 07:39:55 AM 56.4320 -9.7280 283° West 433 498 36,000  Level FlightAware ADS-B
Fri 07:40:40 AM 56.4530 -9.8900 283° West 434 499 36,000  Level FlightAware ADS-B
Fri 07:41:21 AM 56.4710 -10.0300 283° West 434 499 36,000  Level FlightAware ADS-B
Fri 07:42:05 AM 56.4910 -10.1890 283° West 433 498 36,000  Level FlightAware ADS-B
Fri 07:42:41 AM 56.5060 -10.3110 283° West 433 498 36,000  Level FlightAware ADS-B
Fri 07:43:15 AM 56.5220 -10.4350 283° West 431 496 36,000  Level FlightAware ADS-B
Fri 07:44:06 AM 56.5430 -10.6060 283° West 430 495 36,000  Level FlightAware ADS-B
Fri 07:44:36 AM 56.5570 -10.7200 283° West 429 494 36,000  Level FlightAware ADS-B
Fri 07:45:16 AM 56.5730 -10.8570 282° West 428 493 36,000  Level FlightAware ADS-B
Fri 07:46:07 AM 56.5900 -11.0100 281° West 428 493 36,000  Level FlightAware ADS-B
Fri 07:46:43 AM 56.6010 -11.1180 281° West 428 493 36,000  Level FlightAware ADS-B
Fri 07:47:27 AM 56.6280 -11.3180 284° West 423 487 36,000  Level FlightAware ADS-B
Fri 07:48:08 AM 56.6430 -11.4540 281° West 423 487 36,000  Level FlightAware ADS-B
Fri 07:48:47 AM 56.6600 -11.5960 282° West 424 488 36,000  Level FlightAware ADS-B
Fri 07:49:32 AM 56.6730 -11.7180 281° West 424 488 36,000  Level FlightAware ADS-B
Fri 07:50:06 AM 56.6830 -11.8190 280° West 424 488 36,000  Level FlightAware ADS-B
Fri 07:50:44 AM 56.6960 -11.9330 282° West 424 488 36,000  Level FlightAware ADS-B
Fri 07:51:31 AM 56.7100 -12.0730 280° West 424 488 36,000  Level FlightAware ADS-B
Fri 07:52:07 AM 56.7220 -12.1800 282° West 424 488 36,000  Level FlightAware ADS-B
Fri 07:52:44 AM 56.7340 -12.2910 281° West 424 488 36,000  Level FlightAware ADS-B
Fri 07:53:32 AM 56.7490 -12.4340 281° West 424 488 36,000  Level FlightAware ADS-B
Fri 07:54:09 AM 56.7610 -12.5440 281° West 424 488 36,000  Level FlightAware ADS-B
Fri 07:54:57 AM 56.7760 -12.6880 281° West 424 488 36,000  Level FlightAware ADS-B
Fri 07:55:32 AM 56.7870 -12.7920 281° West 424 488 36,000  Level FlightAware ADS-B
Fri 07:56:20 AM 56.8020 -12.9360 281° West 424 488 36,000  Level FlightAware ADS-B
Fri 07:56:56 AM 56.8140 -13.0430 282° West 424 488 36,000  Level FlightAware ADS-B
Fri 07:57:33 AM 56.8250 -13.1540 280° West 424 488 36,000  Level FlightAware ADS-B
Fri 07:58:22 AM 56.8410 -13.3010 281° West 424 488 36,000  Level FlightAware ADS-B
Fri 07:58:46 AM 56.8490 -13.3720 282° West 424 488 36,000  Level FlightAware ADS-B
Fri 08:01:00 AM 56.8660 -13.8349 274° West  Level Estimated
Fri 08:02:00 AM 56.8731 -14.0423 274° West  Level Estimated
Fri 08:03:00 AM 56.8798 -14.2498 273° West  Level Estimated
Fri 08:04:00 AM 56.8862 -14.4573 273° West  Level Estimated
Fri 08:05:00 AM 56.8923 -14.6649 273° West  Level Estimated
Fri 08:06:00 AM 56.8980 -14.8726 273° West  Level Estimated
Fri 08:07:00 AM 56.9033 -15.0803 273° West  Level Estimated
Fri 08:08:00 AM 56.9083 -15.2881 273° West  Level Estimated
Fri 08:09:00 AM 56.9130 -15.4960 272° West  Level Estimated
Fri 08:10:00 AM 56.9174 -15.7058 272° West  Level Estimated
Fri 08:11:00 AM 56.9214 -15.9156 272° West  Level Estimated
Fri 08:12:00 AM 56.9250 -16.1254 272° West  Level Estimated
Fri 08:13:00 AM 56.9283 -16.3353 272° West  Level Estimated
Fri 08:14:00 AM 56.9313 -16.5453 272° West  Level Estimated
Fri 08:15:00 AM 56.9339 -16.7552 271° West  Level Estimated
Fri 08:16:00 AM 56.9361 -16.9652 271° West  Level Estimated
Fri 08:17:00 AM 56.9380 -17.1752 271° West  Level Estimated
Fri 08:18:00 AM 56.9396 -17.3853 271° West  Level Estimated
Fri 08:19:00 AM 56.9408 -17.5953 271° West  Level Estimated
Fri 08:20:00 AM 56.9416 -17.8054 271° West  Level Estimated
Fri 08:21:00 AM 56.9421 -18.0155 270° West  Level Estimated
Fri 08:22:00 AM 56.9422 -18.2255 270° West  Level Estimated
Fri 08:23:00 AM 56.9420 -18.4356 270° West  Level Estimated
Fri 08:24:00 AM 56.9414 -18.6457 270° West  Level Estimated
Fri 08:25:00 AM 56.9405 -18.8557 270° West  Level Estimated
Fri 08:26:00 AM 56.9393 -19.0658 269° West  Level Estimated
Fri 08:27:00 AM 56.9376 -19.2758 269° West  Level Estimated
Fri 08:28:00 AM 56.9356 -19.4858 269° West  Level Estimated
Fri 08:29:00 AM 56.9333 -19.6958 269° West  Level Estimated
Fri 08:30:00 AM 56.9306 -19.9058 269° West  Level Estimated
Fri 08:31:00 AM 56.9276 -20.1157 269° West  Level Estimated
Fri 08:32:00 AM 56.9242 -20.3256 268° West  Level Estimated
Fri 08:33:00 AM 56.9205 -20.5354 268° West  Level Estimated
Fri 08:33:26 AM 58.0000 -20.0000 295° West 422 486 36,000  Level ETMS Enhanced Traffic Management System
Fri 08:34:00 AM 56.9164 -20.7453 268° West  Level Estimated
Fri 08:35:00 AM 56.9119 -20.9550 268° West  Level Estimated
Fri 08:36:00 AM 56.9072 -21.1647 268° West  Level Estimated
Fri 08:37:00 AM 56.9020 -21.3744 268° West  Level Estimated
Fri 08:38:00 AM 56.8965 -21.5840 267° West  Level Estimated
Fri 08:39:00 AM 58.4414 -21.8231 294° West 422 486 36,000  Level FlightAware Transoceanic
Fri 08:40:00 AM 58.4888 -22.0285 294° West 422 486 36,000  Level FlightAware Transoceanic
Fri 08:41:00 AM 58.5359 -22.2344 294° West 422 486 36,000  Level FlightAware Transoceanic
Fri 08:42:00 AM 58.5827 -22.4409 293° West 422 486 36,000  Level FlightAware Transoceanic
Fri 08:43:00 AM 58.6291 -22.6479 293° West 422 486 36,000  Level FlightAware Transoceanic
Fri 08:44:00 AM 58.6752 -22.8554 293° West 422 486 36,000  Level FlightAware Transoceanic
Fri 08:45:00 AM 58.7210 -23.0636 293° West 422 486 36,000  Level FlightAware Transoceanic
Fri 08:46:00 AM 58.7664 -23.2722 293° West 422 486 36,000  Level FlightAware Transoceanic
Fri 08:47:00 AM 58.8115 -23.4814 292° West 422 486 36,000  Level FlightAware Transoceanic
Fri 08:48:00 AM 58.8563 -23.6912 292° West 422 486 36,000  Level FlightAware Transoceanic
Fri 08:49:00 AM 58.9007 -23.9014 292° West 422 486 36,000  Level FlightAware Transoceanic
Fri 08:50:00 AM 58.9447 -24.1123 292° West 422 486 36,000  Level FlightAware Transoceanic
Fri 08:51:00 AM 58.9885 -24.3236 292° West 422 486 36,000  Level FlightAware Transoceanic
Fri 08:52:00 AM 59.0318 -24.5355 292° West 422 486 36,000  Level FlightAware Transoceanic
Fri 08:53:00 AM 59.0749 -24.7480 291° West 422 486 36,000  Level FlightAware Transoceanic
Fri 08:54:00 AM 59.1176 -24.9609 291° West 422 486 36,000  Level FlightAware Transoceanic
Fri 08:55:00 AM 59.1599 -25.1744 291° West 422 486 36,000  Level FlightAware Transoceanic
Fri 08:56:00 AM 59.2019 -25.3884 291° West 422 486 36,000  Level FlightAware Transoceanic
Fri 08:57:00 AM 59.2435 -25.6030 291° West 422 486 36,000  Level FlightAware Transoceanic
Fri 08:58:00 AM 59.2848 -25.8180 290° West 422 486 36,000  Level FlightAware Transoceanic
Fri 08:59:00 AM 59.3257 -26.0336 290° West 422 486 36,000  Level FlightAware Transoceanic
Fri 09:00:00 AM 59.3663 -26.2497 290° West 422 486 36,000  Level FlightAware Transoceanic
Fri 09:01:00 AM 59.4065 -26.4663 290° West 422 486 36,000  Level FlightAware Transoceanic
Fri 09:02:00 AM 59.4464 -26.6835 290° West 422 486 36,000  Level FlightAware Transoceanic
Fri 09:03:00 AM 59.4859 -26.9011 290° West 422 486 36,000  Level FlightAware Transoceanic
Fri 09:04:00 AM 59.5250 -27.1193 289° West 422 486 36,000  Level FlightAware Transoceanic
Fri 09:05:00 AM 59.5637 -27.3379 289° West 422 486 36,000  Level FlightAware Transoceanic
Fri 09:06:00 AM 59.6021 -27.5571 289° West 422 486 36,000  Level FlightAware Transoceanic
Fri 09:07:00 AM 59.6402 -27.7767 289° West 422 486 36,000  Level FlightAware Transoceanic
Fri 09:08:00 AM 59.6778 -27.9969 289° West 422 486 36,000  Level FlightAware Transoceanic
Fri 09:09:00 AM 59.7151 -28.2175 288° West 422 486 36,000  Level FlightAware Transoceanic
Fri 09:10:00 AM 59.7520 -28.4386 288° West 422 486 36,000  Level FlightAware Transoceanic
Fri 09:11:00 AM 59.7886 -28.6602 288° West 422 486 36,000  Level FlightAware Transoceanic
Fri 09:12:00 AM 59.8248 -28.8824 288° West 422 486 36,000  Level FlightAware Transoceanic
Fri 09:13:00 AM 59.8606 -29.1049 288° West 422 486 36,000  Level FlightAware Transoceanic
Fri 09:14:00 AM 59.8960 -29.3280 287° West 422 486 36,000  Level FlightAware Transoceanic
Fri 09:15:00 AM 59.9310 -29.5515 287° West 422 486 36,000  Level FlightAware Transoceanic
Fri 09:16:00 AM 59.9657 -29.7755 287° West 422 486 36,000  Level FlightAware Transoceanic
Fri 09:16:00 AM 60.0000 -30.0000 263° West 453 521 36,000  Level ETMS Enhanced Traffic Management System
Fri 09:17:00 AM 59.9992 -29.9946 287° West  Level FlightAware Approximate
Fri 09:18:00 AM 60.0323 -30.2141 287° West  Level FlightAware Approximate
Fri 09:19:00 AM 59.9861 -30.2161 263° West  Level FlightAware Approximate
Fri 09:20:00 AM 59.9712 -30.4432 263° West  Level FlightAware Approximate
Fri 09:21:00 AM 59.9558 -30.6700 262° West  Level FlightAware Approximate
Fri 09:22:00 AM 59.8654 -31.9946 261° West 453 521 36,000  Level FlightAware Transoceanic
Fri 09:23:00 AM 59.8465 -32.2428 261° West 453 521 36,000  Level FlightAware Transoceanic
Fri 09:24:00 AM 59.8271 -32.4906 261° West 453 521 36,000  Level FlightAware Transoceanic
Fri 09:25:00 AM 59.8072 -32.7382 261° West 453 521 36,000  Level FlightAware Transoceanic
Fri 09:26:00 AM 59.7869 -32.9854 261° West 453 521 36,000  Level FlightAware Transoceanic
Fri 09:27:00 AM 59.7661 -33.2324 260° West 453 521 36,000  Level FlightAware Transoceanic
Fri 09:28:00 AM 59.7448 -33.4790 260° West 453 521 36,000  Level FlightAware Transoceanic
Fri 09:29:00 AM 59.7231 -33.7254 260° West 453 521 36,000  Level FlightAware Transoceanic
Fri 09:30:00 AM 59.7009 -33.9714 260° West 453 521 36,000  Level FlightAware Transoceanic
Fri 09:31:00 AM 59.6783 -34.2171 260° West 453 521 36,000  Level FlightAware Transoceanic
Fri 09:32:00 AM 59.6552 -34.4624 259° West 453 521 36,000  Level FlightAware Transoceanic
Fri 09:33:00 AM 59.6316 -34.7074 259° West 453 521 36,000  Level FlightAware Transoceanic
Fri 09:34:00 AM 59.6076 -34.9521 259° West 453 521 36,000  Level FlightAware Transoceanic
Fri 09:35:00 AM 59.5831 -35.1964 259° West 453 521 36,000  Level FlightAware Transoceanic
Fri 09:36:00 AM 59.5582 -35.4403 258° West 453 521 36,000  Level FlightAware Transoceanic
Fri 09:37:00 AM 59.5328 -35.6839 258° West 453 521 36,000  Level FlightAware Transoceanic
Fri 09:38:00 AM 59.5070 -35.9271 258° West 453 521 36,000  Level FlightAware Transoceanic
Fri 09:39:00 AM 59.4807 -36.1699 258° West 453 521 36,000  Level FlightAware Transoceanic
Fri 09:40:00 AM 59.4540 -36.4124 258° West 453 521 36,000  Level FlightAware Transoceanic
Fri 09:41:00 AM 59.4268 -36.6545 257° West 453 521 36,000  Level FlightAware Transoceanic
Fri 09:42:00 AM 59.3992 -36.8961 257° West 453 521 36,000  Level FlightAware Transoceanic
Fri 09:43:00 AM 59.3711 -37.1374 257° West 453 521 36,000  Level FlightAware Transoceanic
Fri 09:44:00 AM 59.3426 -37.3783 257° West 453 521 36,000  Level FlightAware Transoceanic
Fri 09:45:00 AM 59.3137 -37.6188 257° West 453 521 36,000  Level FlightAware Transoceanic
Fri 09:46:00 AM 59.2843 -37.8588 256° West 453 521 36,000  Level FlightAware Transoceanic
Fri 09:47:00 AM 59.2544 -38.0985 256° West 453 521 36,000  Level FlightAware Transoceanic
Fri 09:48:00 AM 59.2242 -38.3377 256° West 453 521 36,000  Level FlightAware Transoceanic
Fri 09:49:00 AM 59.1934 -38.5765 256° West 453 521 36,000  Level FlightAware Transoceanic
Fri 09:50:00 AM 59.1623 -38.8148 256° West 453 521 36,000  Level FlightAware Transoceanic
Fri 09:51:00 AM 59.1307 -39.0528 255° West 453 521 36,000  Level FlightAware Transoceanic
Fri 09:52:00 AM 59.0987 -39.2902 255° West 453 521 36,000  Level FlightAware Transoceanic
Fri 09:53:00 AM 59.0662 -39.5273 255° West 453 521 36,000  Level FlightAware Transoceanic
Fri 09:54:00 AM 59.0333 -39.7639 255° West 453 521 36,000  Level FlightAware Transoceanic
Fri 09:55:00 AM 59.0030 -39.9786 255° West  Level FlightAware Approximate
Fri 09:56:00 AM 58.9725 -40.1929 255° West  Level FlightAware Approximate
Fri 09:56:00 AM 59.0000 -40.0000 254° West 442 509 36,000  Level ETMS Enhanced Traffic Management System
Fri 09:57:00 AM 58.9740 -40.1707 254° West  Level FlightAware Approximate
Fri 09:58:00 AM 58.9412 -40.3836 253° West  Level FlightAware Approximate
Fri 09:59:00 AM 58.9081 -40.5961 253° West  Level FlightAware Approximate
Fri 10:00:00 AM 58.8746 -40.8083 253° West  Level FlightAware Approximate
Fri 10:01:00 AM 58.8408 -41.0200 253° West  Level FlightAware Approximate
Fri 10:02:00 AM 58.8066 -41.2313 253° West  Level FlightAware Approximate
Fri 10:03:00 AM 58.7096 -41.8176 252° West 442 509 36,000  Level FlightAware Transoceanic
Fri 10:04:00 AM 58.6716 -42.0427 252° West 442 509 36,000  Level FlightAware Transoceanic
Fri 10:05:00 AM 58.6331 -42.2672 252° West 442 509 36,000  Level FlightAware Transoceanic
Fri 10:06:00 AM 58.5942 -42.4913 251° West 442 509 36,000  Level FlightAware Transoceanic
Fri 10:07:00 AM 58.5550 -42.7148 251° West 442 509 36,000  Level FlightAware Transoceanic
Fri 10:08:00 AM 58.5154 -42.9379 251° West 442 509 36,000  Level FlightAware Transoceanic
Fri 10:09:00 AM 58.4753 -43.1604 251° West 442 509 36,000  Level FlightAware Transoceanic
Fri 10:10:00 AM 58.4349 -43.3824 251° West 442 509 36,000  Level FlightAware Transoceanic
Fri 10:11:00 AM 58.3941 -43.6040 251° West 442 509 36,000  Level FlightAware Transoceanic
Fri 10:12:00 AM 58.3530 -43.8250 250° West 442 509 36,000  Level FlightAware Transoceanic
Fri 10:13:00 AM 58.3114 -44.0454 250° West 442 509 36,000  Level FlightAware Transoceanic
Fri 10:14:00 AM 58.2695 -44.2654 250° West 442 509 36,000  Level FlightAware Transoceanic
Fri 10:15:00 AM 58.2272 -44.4849 250° West 442 509 36,000  Level FlightAware Transoceanic
Fri 10:16:00 AM 58.1845 -44.7038 250° West 442 509 36,000  Level FlightAware Transoceanic
Fri 10:17:00 AM 58.1414 -44.9222 249° West 442 509 36,000  Level FlightAware Transoceanic
Fri 10:18:00 AM 58.0980 -45.1400 249° West 442 509 36,000  Level FlightAware Transoceanic
Fri 10:19:00 AM 58.0542 -45.3574 249° West 442 509 36,000  Level FlightAware Transoceanic
Fri 10:20:00 AM 58.0100 -45.5742 249° West 442 509 36,000  Level FlightAware Transoceanic
Fri 10:21:00 AM 57.9655 -45.7904 249° West 442 509 36,000  Level FlightAware Transoceanic
Fri 10:22:00 AM 57.9206 -46.0061 248° West 442 509 36,000  Level FlightAware Transoceanic
Fri 10:23:00 AM 57.8753 -46.2213 248° West 442 509 36,000  Level FlightAware Transoceanic
Fri 10:24:00 AM 57.8297 -46.4360 248° West 442 509 36,000  Level FlightAware Transoceanic
Fri 10:25:00 AM 57.7837 -46.6500 248° West 442 509 36,000  Level FlightAware Transoceanic
Fri 10:26:00 AM 57.7374 -46.8636 248° West 442 509 36,000  Level FlightAware Transoceanic
Fri 10:27:00 AM 57.6907 -47.0766 248° West 442 509 36,000  Level FlightAware Transoceanic
Fri 10:28:00 AM 57.6436 -47.2890 247° West 442 509 36,000  Level FlightAware Transoceanic
Fri 10:29:00 AM 57.5962 -47.5009 247° West 442 509 36,000  Level FlightAware Transoceanic
Fri 10:30:00 AM 57.5484 -47.7122 247° West 442 509 36,000  Level FlightAware Transoceanic
Fri 10:31:00 AM 57.5003 -47.9230 247° West 442 509 36,000  Level FlightAware Transoceanic
Fri 10:32:00 AM 57.4518 -48.1333 247° West 442 509 36,000  Level FlightAware Transoceanic
Fri 10:33:00 AM 57.4030 -48.3429 247° West 442 509 36,000  Level FlightAware Transoceanic
Fri 10:34:00 AM 57.3538 -48.5520 246° West 442 509 36,000  Level FlightAware Transoceanic
Fri 10:35:00 AM 57.3043 -48.7606 246° West 442 509 36,000  Level FlightAware Transoceanic
Fri 10:36:00 AM 57.2544 -48.9686 246° West 442 509 36,000  Level FlightAware Transoceanic
Fri 10:37:00 AM 57.2042 -49.1760 246° West 442 509 36,000  Level FlightAware Transoceanic
Fri 10:38:00 AM 57.1537 -49.3828 246° West 442 509 36,000  Level FlightAware Transoceanic
Fri 10:39:00 AM 57.1028 -49.5891 245° Southwest 442 509 36,000  Level FlightAware Transoceanic
Fri 10:40:00 AM 57.0516 -49.7948 245° Southwest 442 509 36,000  Level FlightAware Transoceanic
Fri 10:41:00 AM 57.0035 -49.9860 245° Southwest  Level FlightAware Approximate
Fri 10:42:00 AM 56.9552 -50.1767 245° Southwest  Level FlightAware Approximate
Fri 10:43:00 AM 56.9631 -50.1662 248° West  Level FlightAware Approximate
Fri 10:44:00 AM 56.9195 -50.3605 248° West  Level FlightAware Approximate
Fri 10:45:00 AM 56.8757 -50.5544 248° West  Level FlightAware Approximate
Fri 10:45:02 AM 57.0000 -50.0000 252° West 405 466 36,000  Level ETMS Enhanced Traffic Management System
Fri 10:46:00 AM 56.8316 -50.7478 247° West  Level FlightAware Approximate
Fri 10:47:00 AM 56.7871 -50.9408 247° West  Level FlightAware Approximate
Fri 10:48:00 AM 56.7424 -51.1332 247° West  Level FlightAware Approximate
Fri 10:49:00 AM 56.6974 -51.3253 247° West  Level FlightAware Approximate
Fri 10:50:00 AM 56.6521 -51.5168 247° West  Level FlightAware Approximate
Fri 10:51:00 AM 56.7133 -51.5626 251° West 405 466 36,000  Level FlightAware Transoceanic
Fri 10:52:00 AM 56.6761 -51.7563 251° West 405 466 36,000  Level FlightAware Transoceanic
Fri 10:53:00 AM 56.6386 -51.9495 250° West 405 466 36,000  Level FlightAware Transoceanic
Fri 10:54:00 AM 56.6008 -52.1424 250° West 405 466 36,000  Level FlightAware Transoceanic
Fri 10:55:00 AM 56.5627 -52.3349 250° West 405 466 36,000  Level FlightAware Transoceanic
Fri 10:56:00 AM 56.5243 -52.5270 250° West 405 466 36,000  Level FlightAware Transoceanic
Fri 10:57:00 AM 56.4857 -52.7187 250° West 405 466 36,000  Level FlightAware Transoceanic
Fri 10:58:00 AM 56.4467 -52.9100 250° West 405 466 36,000  Level FlightAware Transoceanic
Fri 10:59:00 AM 56.4074 -53.1009 250° West 405 466 36,000  Level FlightAware Transoceanic
Fri 11:00:00 AM 56.3678 -53.2914 249° West 405 466 36,000  Level FlightAware Transoceanic
Fri 11:01:00 AM 56.3280 -53.4815 249° West 405 466 36,000  Level FlightAware Transoceanic
Fri 11:02:00 AM 56.2878 -53.6712 249° West 405 466 36,000  Level FlightAware Transoceanic
Fri 11:03:00 AM 56.2474 -53.8605 249° West 405 466 36,000  Level FlightAware Transoceanic
Fri 11:04:00 AM 56.2067 -54.0495 249° West 405 466 36,000  Level FlightAware Transoceanic
Fri 11:05:00 AM 56.1656 -54.2380 249° West 405 466 36,000  Level FlightAware Transoceanic
Fri 11:06:00 AM 56.1244 -54.4261 248° West 405 466 36,000  Level FlightAware Transoceanic
Fri 11:07:00 AM 56.0828 -54.6138 248° West 405 466 36,000  Level FlightAware Transoceanic
Fri 11:08:00 AM 56.0409 -54.8011 248° West 405 466 36,000  Level FlightAware Transoceanic
Fri 11:09:00 AM 55.9987 -54.9880 248° West 405 466 36,000  Level FlightAware Transoceanic
Fri 11:10:00 AM 55.9563 -55.1745 248° West 405 466 36,000  Level FlightAware Transoceanic
Fri 11:11:00 AM 55.9136 -55.3606 248° West 405 466 36,000  Level FlightAware Transoceanic
Fri 11:12:00 AM 55.8706 -55.5462 247° West 405 466 36,000  Level FlightAware Transoceanic
Fri 11:13:00 AM 55.8273 -55.7315 247° West 405 466 36,000  Level FlightAware Transoceanic
Fri 11:14:00 AM 55.7838 -55.9163 247° West 405 466 36,000  Level FlightAware Transoceanic
Fri 11:15:00 AM 55.7399 -56.1008 247° West 405 466 36,000  Level FlightAware Transoceanic
Fri 11:16:00 AM 55.6958 -56.2848 247° West 405 466 36,000  Level FlightAware Transoceanic
Fri 11:16:56 AM 55.6833 -56.3000 224° Southwest 430 495 36,000  Level Gander Center
Fri 11:17:00 AM 55.6514 -56.4684 247° West 405 466 36,000  Level FlightAware Transoceanic
Fri 11:17:56 AM 55.6500 -56.5167 255° West 430 495 36,000  Level Gander Center
Fri 11:18:00 AM 55.6068 -56.6516 247° West 405 466 36,000  Level FlightAware Transoceanic
Fri 11:18:56 AM 55.5833 -56.7000 237° Southwest 430 495 36,000  Level Gander Center
Fri 11:19:00 AM 55.5619 -56.8343 246° West 405 466 36,000  Level FlightAware Transoceanic
Fri 11:19:56 AM 55.5167 -56.8833 237° Southwest 430 495 36,000  Level Gander Center
Fri 11:20:00 AM 55.5025 -57.0079 239° Southwest  Level FlightAware Approximate
Fri 11:21:00 AM 55.5155 -57.0192 232° Southwest  Level FlightAware Approximate
Fri 11:21:56 AM 55.3833 -57.2167 235° Southwest 440 506 36,000  Level Gander Center
Fri 11:22:00 AM 55.4337 -57.1605 224° Southwest  Level Estimated
Fri 11:22:49 AM 55.3000 -57.3833 229° Southwest 440 506 36,800  Level Gander Center
Fri 11:23:49 AM 55.2500 -57.5667 244° Southwest 440 506 37,700 567 Climbing Gander Center
Fri 11:24:56 AM 55.1500 -57.7500 226° Southwest 450 518 38,000 142 Climbing Gander Center
Fri 11:25:56 AM 55.0667 -57.9000 226° Southwest 450 518 38,000  Level Gander Center
Fri 11:26:49 AM 55.0000 -58.0500 232° Southwest 450 518 38,000  Level Gander Center
Fri 11:27:49 AM 54.9333 -58.2333 238° Southwest 450 518 38,000  Level Gander Center
Fri 11:29:56 AM 54.7500 -58.5833 228° Southwest 450 518 38,000  Level Gander Center
Fri 11:30:56 AM 54.6667 -58.7667 232° Southwest 450 518 38,000  Level Gander Center
Fri 11:31:49 AM 54.6167 -58.8833 234° Southwest 450 518 38,000  Level Gander Center
Fri 11:32:49 AM 54.5333 -59.0667 232° Southwest 450 518 38,000  Level Gander Center
Fri 11:33:49 AM 54.4500 -59.2167 226° Southwest 450 518 38,000  Level Gander Center
Fri 11:35:49 AM 54.2833 -59.5667 231° Southwest 450 518 38,000  Level Gander Center
Fri 11:36:49 AM 54.2000 -59.7167 227° Southwest 450 518 38,000  Level Gander Center
Fri 11:37:49 AM 54.1167 -59.8833 230° Southwest 450 518 38,000  Level Gander Center
Fri 11:38:49 AM 54.0500 -60.0500 236° Southwest 450 518 38,000  Level Gander Center
Fri 11:39:49 AM 53.9667 -60.2000 227° Southwest 450 518 38,000  Level Gander Center
Fri 11:40:56 AM 53.8667 -60.3833 227° Southwest 450 518 38,000  Level Gander Center
Fri 11:41:56 AM 53.7833 -60.5500 230° Southwest 450 518 38,000  Level Gander Center
Fri 11:42:56 AM 53.7000 -60.6833 223° Southwest 450 518 38,000  Level Gander Center
Fri 11:43:56 AM 53.6167 -60.8667 233° Southwest 450 518 38,000  Level Gander Center
Fri 11:44:56 AM 53.5333 -61.0333 230° Southwest 450 518 38,000  Level Gander Center
Fri 11:45:56 AM 53.4500 -61.1667 224° Southwest 450 518 38,000  Level Gander Center
Fri 11:46:56 AM 53.3667 -61.3333 230° Southwest 450 518 38,000  Level Gander Center
Fri 11:47:56 AM 53.2833 -61.5000 230° Southwest 450 518 38,000  Level Gander Center
Fri 11:48:56 AM 53.2000 -61.6500 227° Southwest 450 518 38,000  Level Gander Center
Fri 11:49:56 AM 53.1167 -61.8167 230° Southwest 450 518 38,000  Level Gander Center
Fri 11:50:56 AM 53.0333 -61.9500 224° Southwest 450 518 38,000  Level Gander Center
Fri 11:51:56 AM 52.9500 -62.1167 230° Southwest 450 518 38,000  Level Gander Center
Fri 11:52:56 AM 52.8500 -62.2833 225° Southwest 450 518 38,000  Level Gander Center
Fri 11:53:56 AM 52.7667 -62.4167 224° Southwest 450 518 38,000  Level Gander Center
Fri 11:54:56 AM 52.6833 -62.5833 231° Southwest 450 518 38,000  Level Gander Center
Fri 11:55:56 AM 52.6000 -62.7167 224° Southwest 450 518 38,000  Level Gander Center
Fri 11:56:56 AM 52.5167 -62.8833 231° Southwest 450 518 38,000  Level Gander Center
Fri 11:57:56 AM 52.4333 -63.0333 228° Southwest 450 518 38,000  Level Gander Center
Fri 11:58:56 AM 52.3500 -63.1667 224° Southwest 450 518 38,000  Level Gander Center
Fri 11:59:56 AM 52.2667 -63.3333 231° Southwest 450 518 38,000  Level Gander Center
Fri 12:00:57 PM 52.1667 -63.4667 219° Southwest 440 506 38,000  Level Gander Center
Fri 12:01:57 PM 52.0833 -63.6167 228° Southwest 440 506 38,000  Level Gander Center
Fri 12:02:57 PM 52.0167 -63.7500 231° Southwest 440 506 38,000  Level Gander Center
Fri 12:03:57 PM 51.9333 -63.9167 231° Southwest 430 495 38,000  Level Gander Center
Fri 12:04:57 PM 51.8500 -64.0500 225° Southwest 430 495 38,000  Level Gander Center
Fri 12:05:57 PM 51.7500 -64.2000 223° Southwest 430 495 38,000  Level Gander Center
Fri 12:06:57 PM 51.6667 -64.3333 225° Southwest 430 495 38,000  Level Gander Center
Fri 12:07:56 PM 51.5833 -64.4500 221° Southwest 430 495 38,000  Level Gander Center
Fri 12:08:56 PM 51.5167 -64.5833 231° Southwest 430 495 38,000  Level Gander Center
Fri 12:09:56 PM 51.4167 -64.7500 226° Southwest 420 483 38,000  Level Gander Center
Fri 12:10:56 PM 51.3500 -64.8667 228° Southwest 420 483 38,000  Level Gander Center
Fri 12:11:56 PM 51.2667 -65.0000 225° Southwest 420 483 38,000  Level Gander Center
Fri 12:12:57 PM 51.1833 -65.1167 221° Southwest 420 483 38,000  Level Gander Center
Fri 12:13:57 PM 51.1000 -65.2500 225° Southwest 420 483 38,000  Level Gander Center
Fri 12:14:57 PM 51.0167 -65.4000 229° Southwest 420 483 38,000  Level Gander Center
Fri 12:15:57 PM 50.9333 -65.5333 225° Southwest 420 483 38,000  Level Gander Center
Fri 12:16:57 PM 50.8333 -65.6500 216° Southwest 420 483 38,000  Level Gander Center
Fri 12:17:57 PM 50.7667 -65.7833 232° Southwest 420 483 38,000  Level Gander Center
Fri 12:18:57 PM 50.6833 -65.9333 229° Southwest 420 483 38,000  Level Gander Center
Fri 12:19:57 PM 50.5833 -66.0500 217° Southwest 420 483 38,000  Level Gander Center
Fri 12:20:57 PM 50.5167 -66.1833 232° Southwest 410 472 38,000  Level Gander Center
Fri 12:21:57 PM 50.4333 -66.3000 222° Southwest 410 472 38,000  Level Gander Center
Fri 12:22:57 PM 50.3500 -66.4167 222° Southwest 410 472 38,000  Level Gander Center
Fri 12:23:57 PM 50.2667 -66.5500 226° Southwest 400 460 38,000  Level Gander Center
Fri 12:24:57 PM 50.1833 -66.6667 222° Southwest 400 460 38,000  Level Moncton Center
Fri 12:25:57 PM 50.1000 -66.8000 226° Southwest 400 460 38,000  Level Moncton Center
Fri 12:26:48 PM 50.0500 -66.8667 221° Southwest 390 449 38,000  Level Montreal Center
Fri 12:27:48 PM 49.9667 -66.9833 222° Southwest 390 449 38,000  Level Montreal Center
Fri 12:28:48 PM 49.8833 -67.1000 222° Southwest 390 449 38,000  Level Montreal Center
Fri 12:29:48 PM 49.8000 -67.2000 218° Southwest 390 449 38,000  Level Montreal Center
Fri 12:30:48 PM 49.7333 -67.3333 232° Southwest 400 460 38,000  Level Montreal Center
Fri 12:31:48 PM 49.6333 -67.4333 213° Southwest 400 460 38,000  Level Montreal Center
Fri 12:32:48 PM 49.5667 -67.5833 236° Southwest 400 460 38,000  Level Montreal Center
Fri 12:33:48 PM 49.4833 -67.6667 213° Southwest 400 460 38,000  Level Montreal Center
Fri 12:34:48 PM 49.4000 -67.7833 222° Southwest 400 460 38,000  Level Montreal Center
Fri 12:35:48 PM 49.3167 -67.9000 222° Southwest 400 460 38,000  Level Montreal Center
Fri 12:36:48 PM 49.2333 -68.0167 222° Southwest 390 449 38,000  Level Montreal Center
Fri 12:37:48 PM 49.1667 -68.1333 229° Southwest 390 449 38,000  Level Montreal Center
Fri 12:38:48 PM 49.0667 -68.2667 221° Southwest 390 449 38,000  Level Montreal Center
Fri 12:39:48 PM 48.9667 -68.3500 209° Southwest 400 460 38,000  Level Montreal Center
Fri 12:40:48 PM 48.8833 -68.4500 218° Southwest 400 460 38,000  Level Montreal Center
Fri 12:41:48 PM 48.7833 -68.5333 209° Southwest 400 460 38,000  Level Montreal Center
Fri 12:47:29 PM 48.2520 -69.1230 209° Southwest 416 479 38,000  Level FlightAware ADS-B
Fri 12:48:09 PM 48.1890 -69.1860 214° Southwest 418 481 38,000  Level FlightAware ADS-B
Fri 12:48:49 PM 48.1220 -69.2510 213° Southwest 418 481 38,000  Level FlightAware ADS-B
Fri 12:49:29 PM 48.0560 -69.3160 213° Southwest 416 479 38,000  Level FlightAware ADS-B
Fri 12:50:10 PM 47.9910 -69.3790 213° Southwest 414 476 38,000  Level FlightAware ADS-B
Fri 12:50:51 PM 47.9300 -69.4390 213° Southwest 413 475 38,000  Level FlightAware ADS-B
Fri 12:51:29 PM 47.8640 -69.5030 213° Southwest 411 473 38,000 -231 Level FlightAware ADS-B
Fri 12:52:09 PM 47.8030 -69.5620 213° Southwest 410 472 37,700 -847 Descending FlightAware ADS-B
Fri 12:52:54 PM 47.7320 -69.6310 213° Southwest 401 461 36,800 -944 Descending FlightAware ADS-B
Fri 12:53:38 PM 47.6640 -69.6970 213° Southwest 390 449 36,300 -565 Descending FlightAware ADS-B
Fri 12:54:19 PM 47.6030 -69.7550 213° Southwest 397 457 36,000 -212 Descending FlightAware ADS-B
Fri 12:55:03 PM 47.5320 -69.8240 213° Southwest 412 474 36,000  Level FlightAware ADS-B
Fri 12:55:43 PM 47.4680 -69.8850 213° Southwest 420 483 36,000  Level FlightAware ADS-B
Fri 12:56:23 PM 47.4070 -69.9430 213° Southwest 424 488 36,000  Level FlightAware ADS-B
Fri 12:57:08 PM 47.3270 -70.0190 213° Southwest 425 489 36,000  Level FlightAware ADS-B
Fri 12:57:48 PM 47.2630 -70.0800 213° Southwest 423 487 36,000  Level FlightAware ADS-B
Fri 12:58:33 PM 47.1880 -70.1510 213° Southwest 423 487 36,000  Level FlightAware ADS-B
Fri 12:59:28 PM 47.1020 -70.2320 213° Southwest 423 487 36,000  Level FlightAware ADS-B
Fri 12:59:53 PM 47.0560 -70.2750 212° Southwest 424 488 36,000  Level FlightAware ADS-B
Fri 01:00:37 PM 46.9870 -70.3400 213° Southwest 425 489 36,000  Level FlightAware ADS-B
Fri 01:02:11 PM 46.8300 -70.4870 213° Southwest 426 490 36,000  Level FlightAware ADS-B
Fri 01:02:51 PM 46.7670 -70.5460 213° Southwest 426 490 36,000  Level FlightAware ADS-B
Fri 01:03:30 PM 46.6960 -70.6120 213° Southwest 427 491 36,000  Level FlightAware ADS-B
Fri 01:04:16 PM 46.6210 -70.6820 213° Southwest 427 491 36,000  Level FlightAware ADS-B
Fri 01:04:51 PM 46.5630 -70.7360 213° Southwest 427 491 36,000  Level FlightAware ADS-B
Fri 01:05:41 PM 46.4780 -70.8140 212° Southwest 426 490 36,000  Level FlightAware ADS-B
Fri 01:06:21 PM 46.4140 -70.8730 212° Southwest 428 493 36,000  Level FlightAware ADS-B
Fri 01:07:06 PM 46.3370 -70.9440 212° Southwest 428 493 36,000  Level FlightAware ADS-B
Fri 01:07:36 PM 46.2880 -70.9890 212° Southwest 428 493 36,000  Level FlightAware ADS-B
Fri 01:08:21 PM 46.2140 -71.0560 212° Southwest 428 493 36,000  Level FlightAware ADS-B
Fri 01:09:06 PM 46.1390 -71.1240 212° Southwest 429 494 36,000  Level FlightAware ADS-B
Fri 01:09:46 PM 46.0710 -71.1860 212° Southwest 430 495 36,000  Level FlightAware ADS-B
Fri 01:10:26 PM 46.0020 -71.2480 212° Southwest 430 495 36,000  Level FlightAware ADS-B
Fri 01:11:38 PM 45.8830 -71.3570 213° Southwest 423 487 36,000  Level FlightAware ADS-B
Fri 01:12:21 PM 45.8090 -71.4230 212° Southwest 429 494 36,000  Level FlightAware ADS-B
Fri 01:12:58 PM 45.7460 -71.4790 212° Southwest 430 495 36,000  Level FlightAware ADS-B
Fri 01:13:43 PM 45.6700 -71.5470 212° Southwest 432 497 36,000  Level FlightAware ADS-B
Fri 01:14:18 PM 45.6110 -71.6000 212° Southwest 431 496 36,000  Level FlightAware ADS-B
Fri 01:15:08 PM 45.5260 -71.6750 212° Southwest 431 496 36,000  Level FlightAware ADS-B
Fri 01:15:48 PM 45.4580 -71.7350 212° Southwest 432 497 36,000  Level FlightAware ADS-B
Fri 01:16:28 PM 45.3920 -71.7950 213° Southwest 433 498 36,000  Level FlightAware ADS-B
Fri 01:17:08 PM 45.3230 -71.8550 211° Southwest 432 497 36,000  Level FlightAware ADS-B
Fri 01:17:48 PM 45.2560 -71.9140 212° Southwest 433 498 36,000  Level FlightAware ADS-B
Fri 01:18:28 PM 45.1900 -71.9720 212° Southwest 434 499 36,000  Level FlightAware ADS-B
Fri 01:19:13 PM 45.1120 -72.0400 212° Southwest 435 501 36,000  Level FlightAware ADS-B
Fri 01:19:53 PM 45.0460 -72.0980 212° Southwest 437 503 36,000  Level FlightAware ADS-B
Fri 01:20:33 PM 44.9750 -72.1590 211° Southwest 439 505 36,000  Level FlightAware ADS-B
Fri 01:21:13 PM 44.9070 -72.2180 212° Southwest 440 506 36,000  Level FlightAware ADS-B
Fri 01:21:53 PM 44.8360 -72.2790 211° Southwest 442 509 36,000  Level FlightAware ADS-B
Fri 01:22:38 PM 44.7580 -72.3470 212° Southwest 443 510 36,000  Level FlightAware ADS-B
Fri 01:23:18 PM 44.6880 -72.4070 211° Southwest 442 509 36,000  Level FlightAware ADS-B
Fri 01:24:02 PM 44.6110 -72.4730 211° Southwest 441 507 36,000  Level FlightAware ADS-B
Fri 01:24:44 PM 44.5390 -72.5340 211° Southwest 440 506 36,000  Level FlightAware ADS-B
Fri 01:25:20 PM 44.4760 -72.5880 211° Southwest 438 504 36,000  Level FlightAware ADS-B
Fri 01:26:05 PM 44.4010 -72.6520 211° Southwest 437 503 36,000  Level FlightAware ADS-B
Fri 01:26:43 PM 44.3330 -72.7090 211° Southwest 437 503 36,000  Level FlightAware ADS-B
Fri 01:27:31 PM 44.2510 -72.7790 211° Southwest 439 505 36,000  Level FlightAware ADS-B
Fri 01:28:10 PM 44.1820 -72.8360 211° Southwest 437 503 36,000  Level FlightAware ADS-B
Fri 01:28:56 PM 44.1020 -72.9030 211° Southwest 435 501 36,000  Level FlightAware ADS-B
Fri 01:29:36 PM 44.0330 -72.9610 211° Southwest 437 503 36,000  Level FlightAware ADS-B
Fri 01:30:27 PM 43.9490 -73.0310 211° Southwest 439 505 36,000  Level FlightAware ADS-B
Fri 01:31:08 PM 43.8730 -73.0930 210° Southwest 439 505 36,000  Level FlightAware ADS-B
Fri 01:31:50 PM 43.7990 -73.1550 211° Southwest 438 504 36,000  Level FlightAware ADS-B
Fri 01:32:26 PM 43.7360 -73.2070 211° Southwest 437 503 36,000  Level FlightAware ADS-B
Fri 01:33:12 PM 43.6580 -73.2710 211° Southwest 437 503 36,000 -500 Level FlightAware ADS-B
Fri 01:33:50 PM 43.5940 -73.3230 210° Southwest 431 496 35,300 -2,071 Descending FlightAware ADS-B
Fri 01:34:36 PM 43.5140 -73.3880 211° Southwest 438 504 33,100 -3,000 Descending FlightAware ADS-B
Fri 01:35:18 PM 43.4390 -73.4490 211° Southwest 443 510 30,900 -3,200 Descending FlightAware ADS-B
Fri 01:36:06 PM 43.3570 -73.5150 210° Southwest 450 518 28,300 -1,814 Descending FlightAware ADS-B
Fri 01:36:44 PM 43.2990 -73.5610 210° Southwest 450 518 28,300  Level FlightAware ADS-B
Fri 01:37:32 PM 43.2250 -73.6200 210° Southwest 450 518 28,300 -3,227 Level FlightAware ADS-B
Fri 01:38:43 PM 43.0760 -73.6980 201° Southwest 429 494 21,900 -4,222 Descending FlightAware ADS-B
Fri 01:39:20 PM 43.0020 -73.7300 198° South 422 486 20,700 -1,880 Descending FlightAware ADS-B
Fri 01:40:06 PM 42.9220 -73.7630 197° South 410 472 19,300 -1,829 Descending FlightAware ADS-B
Fri 01:40:42 PM 42.8610 -73.7900 198° South 404 465 18,200 -2,108 Descending FlightAware ADS-B
Fri 01:41:20 PM 42.7860 -73.8210 197° South 396 456 16,700 -1,380 Descending FlightAware ADS-B
Fri 01:42:22 PM 42.6910 -73.8610 197° South 397 457 15,900 -495 Descending FlightAware ADS-B
Fri 01:42:57 PM 42.6390 -73.8820 197° South 397 457 15,900  Level FlightAware ADS-B
Fri 01:43:33 PM 42.5850 -73.9050 197° South 397 457 15,900  Level FlightAware ADS-B
Fri 01:44:21 PM 42.5130 -73.9350 197° South 397 457 15,900  Level FlightAware ADS-B
Fri 01:44:57 PM 42.4590 -73.9570 197° South 397 457 15,900  Level FlightAware ADS-B
Fri 01:45:48 PM 42.3830 -73.9880 197° South 397 457 15,900 -412 Level FlightAware ADS-B
Fri 01:51:01 PM 41.8110 -74.2800 201° Southwest 322 371 13,400 -432 Descending FlightAware ADS-B
Fri 01:51:35 PM 41.7760 -74.3070 210° Southwest 313 360 13,400 -971 Level FlightAware ADS-B
Fri 01:52:09 PM 41.7490 -74.3770 243° Southwest 280 322 12,300 -1,800 Descending FlightAware ADS-B
Fri 01:52:35 PM 41.7270 -74.4090 227° Southwest 284 327 11,600 -636 Descending FlightAware ADS-B
Fri 01:53:15 PM 41.6890 -74.4400 211° Southwest 284 327 11,600  Level FlightAware ADS-B
Fri 01:53:55 PM 41.6500 -74.4710 211° Southwest 284 327 11,600 -2,045 Level FlightAware ADS-B
Fri 01:54:43 PM 41.5554 -74.4209 158° South 285 328 8,600 -2,707 Descending FlightAware ADS-B
Fri 01:55:17 PM 41.5106 -74.4213 180° South 278 320 7,900 -1,385 Descending FlightAware ADS-B
Fri 01:55:35 PM 41.4880 -74.4214 180° South 278 320 7,400 -1,543 Descending FlightAware ADS-B
Fri 01:55:52 PM 41.4665 -74.4216 180° South 276 318 7,000 -545 Descending FlightAware ADS-B
Fri 01:56:41 PM 41.4052 -74.4233 181° South 276 318 6,800 -190 Descending FlightAware ADS-B
Fri 01:56:55 PM 41.3877 -74.4283 192° South 266 306 6,800 -286 Level FlightAware ADS-B
Fri 01:57:02 PM 41.3798 -74.4312 195° South 266 306 6,700 -460 Descending FlightAware ADS-B
Fri 02:01:16 PM 41.0930 -74.3110 162° South 253 291 4,800 -383 Descending FlightAware ADS-B
Fri 02:02:00 PM 41.0560 -74.2800 148° Southeast 240 276 4,800 -247 Level FlightAware ADS-B
Fri 02:02:29 PM 41.0240 -74.2568 151° Southeast 228 262 4,500 -720 Descending FlightAware ADS-B
Fri 02:02:50 PM 41.0068 -74.2403 144° Southeast 228 262 4,200 -875 Descending FlightAware ADS-B
Fri 02:03:17 PM 40.9833 -74.2187 145° Southeast 227 261 3,800 -514 Descending FlightAware ADS-B
Fri 02:04:00 PM 40.9480 -74.1880 147° Southeast 229 264 3,600 -393 Descending FlightAware ADS-B
Fri 02:04:18 PM 40.9320 -74.1750 148° Southeast 228 262 3,400 -714 Descending FlightAware ADS-B
Fri 02:04:42 PM 40.9090 -74.1560 148° Southeast 228 262 3,100 -679 Descending FlightAware ADS-B
Fri 02:05:11 PM 40.8824 -74.1334 147° Southeast 227 261 2,800 -360 Descending FlightAware ADS-B
Fri 02:05:32 PM 40.8649 -74.1191 148° Southeast 206 237 2,800  Level FlightAware ADS-B
Fri 02:05:41 PM 40.8575 -74.1130 148° Southeast 207 238 2,800  Level FlightAware ADS-B
Fri 02:05:50 PM 40.8504 -74.1080 152° Southeast 205 236 2,800  Level FlightAware ADS-B
Fri 02:05:56 PM 40.8447 -74.1047 156° South 201 231 2,800  Level FlightAware ADS-B
Fri 02:06:09 PM 40.8341 -74.0995 160° South 191 220 2,800  Level FlightAware ADS-B
Fri 02:06:12 PM 40.8316 -74.0983 160° South 187 215 2,800  Level FlightAware ADS-B
Fri 02:06:16 PM 40.8278 -74.0973 169° South 182 209 2,800  Level FlightAware ADS-B
Fri 02:06:20 PM 40.8250 -74.0973 180° South 183 211 2,800  Level FlightAware ADS-B
Fri 02:06:23 PM 40.8219 -74.0980 190° South 183 211 2,800  Level FlightAware ADS-B
Fri 02:06:29 PM 40.8173 -74.1002 200° South 185 213 2,800 -600 Level FlightAware ADS-B
Fri 02:06:43 PM 40.8065 -74.1066 204° Southwest 184 212 2,600 -960 Descending FlightAware ADS-B
Fri 02:06:54 PM 40.7982 -74.1112 203° Southwest 182 209 2,400 -1,200 Descending FlightAware ADS-B
Fri 02:06:58 PM 40.7948 -74.1133 205° Southwest 181 208 2,300 -1,111 Descending FlightAware ADS-B
Fri 02:07:21 PM 40.7776 -74.1241 205° Southwest 180 207 1,900 -947 Descending FlightAware ADS-B
Fri 02:07:36 PM 40.7666 -74.1311 206° Southwest 175 201 1,700 -800 Descending FlightAware ADS-B
Fri 02:07:51 PM 40.7553 -74.1380 205° Southwest 179 206 1,500 -968 Descending FlightAware ADS-B
Fri 02:08:07 PM 40.7441 -74.1450 205° Southwest 170 196 1,200 -968 Descending FlightAware ADS-B
Fri 02:08:22 PM 40.7341 -74.1512 205° Southwest 156 180 1,000 -800 Descending FlightAware ADS-B
Fri 02:08:37 PM 40.7248 -74.1569 205° Southwest 135 155 800 -581 Descending FlightAware ADS-B
Fri 02:08:53 PM 40.7163 -74.1622 205° Southwest 128 147 700 -558 Descending FlightAware ADS-B
Fri 02:09:20 PM 40.7021 -74.1708 205° Southwest 127 146 400 -667 Descending FlightAware ADS-B

Login

Don't have an account? Register now (free) for customized features, flight alerts, and more!